Limestone Hill, West Virginia
Current Conditions -  °F | °C
As of 12:53 PM on Monday 24 Nov 2014 (Local Time) from KPKB Reporting Station
Scattered Clouds Scattered Clouds  
Wind Chill: 66°   Ceiling: Unl
Heat Index: 66°   Visibility: 10mi
Dew Point: 48°   Wind: 16mph
Humidity: 52%   Direction: 230°SW
Pressure: 29.5"   Gusts: 30mph
Location:  39.0402°N, 81.3085°W
Report Text: KPKB 241753Z 23014G26KT 10SM FEW031 FEW049 SCT055 19/09 A2950 RMK AO2 PK WND 26034/1728 RAB29E50 SLP986 P0000 60000 T01890089 10211 20167 53008
Loading
Personal Weather Stations






























Interactive Weather Map New forecast layout! Learn more

10-Day Weather Forecast

Advertisements
Track Severe Weather on mobile